createdAt,value
2023-06-11T00:01:29.849Z,2.83
2023-06-11T00:03:16.964Z,3.10
2023-06-11T00:04:52.863Z,3.15
2023-06-11T00:06:26.479Z,3.90
2023-06-11T00:08:01.865Z,3.38
2023-06-11T00:09:35.827Z,2.90
2023-06-11T00:11:09.672Z,2.63
2023-06-11T00:12:43.304Z,3.10
2023-06-11T00:14:19.009Z,3.70
2023-06-11T00:15:53.518Z,3.22
2023-06-11T00:17:29.199Z,3.10
2023-06-11T00:19:06.538Z,3.45
2023-06-11T00:20:43.153Z,3.28
2023-06-11T00:22:16.871Z,3.10
2023-06-11T00:23:50.230Z,3.45
2023-06-11T00:25:23.501Z,3.28
2023-06-11T00:27:00.379Z,3.72
2023-06-11T00:28:34.712Z,3.67
2023-06-11T00:30:09.648Z,4.43
2023-06-11T00:31:55.395Z,3.50
2023-06-11T00:33:29.626Z,3.42
2023-06-11T00:35:06.039Z,3.25
2023-06-11T00:36:42.321Z,2.90
2023-06-11T00:38:20.698Z,3.42
2023-06-11T00:39:54.767Z,3.35
2023-06-11T00:41:30.317Z,3.10
2023-06-11T00:43:03.854Z,3.85
2023-06-11T00:44:40.009Z,3.35
2023-06-11T00:46:22.138Z,3.28
2023-06-11T00:47:55.703Z,3.45
2023-06-11T00:49:31.268Z,3.45
2023-06-11T00:51:04.715Z,3.67
2023-06-11T00:52:37.898Z,3.20
2023-06-11T00:54:12.911Z,3.47
2023-06-11T00:55:47.233Z,3.80
2023-06-11T00:57:21.048Z,3.17
2023-06-11T00:58:54.252Z,2.97
2023-06-11T01:00:28.462Z,3.13
2023-06-11T01:02:25.601Z,3.10
2023-06-11T01:04:23.359Z,3.85
2023-06-11T01:06:16.888Z,3.33
2023-06-11T01:07:53.377Z,3.70
2023-06-11T01:09:32.087Z,3.70
2023-06-11T01:11:23.821Z,2.80
2023-06-11T01:13:01.213Z,3.22
2023-06-11T01:14:39.819Z,3.28
2023-06-11T01:16:25.843Z,3.85
2023-06-11T01:18:11.980Z,2.97
2023-06-11T01:20:10.866Z,3.47
2023-06-11T01:21:55.199Z,3.25
2023-06-11T01:24:23.245Z,3.13
2023-06-11T01:26:38.333Z,3.50
2023-06-11T01:28:18.438Z,3.85
2023-06-11T01:29:56.688Z,3.13
2023-06-11T01:31:39.503Z,3.40
2023-06-11T01:33:18.821Z,3.25
2023-06-11T01:35:23.774Z,3.97
2023-06-11T01:37:03.863Z,3.63
2023-06-11T01:38:40.669Z,3.60
2023-06-11T01:40:16.422Z,3.47
2023-06-11T01:41:52.138Z,3.40
2023-06-11T01:43:43.848Z,3.70
2023-06-11T01:45:20.184Z,3.45
2023-06-11T01:46:53.641Z,3.38
2023-06-11T01:48:27.034Z,3.60
2023-06-11T01:50:03.061Z,3.72
2023-06-11T01:51:36.437Z,3.50
2023-06-11T01:53:12.630Z,3.90
2023-06-11T01:54:47.461Z,3.47
2023-06-11T01:56:20.932Z,4.38
2023-06-11T01:57:54.159Z,3.28
2023-06-11T01:59:27.622Z,4.03
2023-06-11T02:01:03.853Z,3.78
2023-06-11T02:02:46.106Z,4.20
2023-06-11T02:04:26.805Z,3.60
2023-06-11T02:06:02.163Z,3.90
2023-06-11T02:07:50.731Z,3.78
2023-06-11T02:09:28.317Z,4.60
2023-06-11T02:11:18.809Z,4.15
2023-06-11T02:12:52.226Z,3.80
2023-06-11T02:14:27.134Z,3.50
2023-06-11T02:16:02.375Z,3.50
2023-06-11T02:17:36.217Z,3.70
2023-06-11T02:19:09.650Z,4.38
2023-06-11T02:20:49.184Z,3.88
2023-06-11T02:22:25.234Z,3.90
2023-06-11T02:24:04.842Z,3.97
2023-06-11T02:25:41.586Z,4.45
2023-06-11T02:27:14.719Z,3.25
2023-06-11T02:28:48.360Z,3.92
2023-06-11T02:30:25.337Z,3.90
2023-06-11T02:32:00.867Z,4.10
2023-06-11T02:33:34.025Z,3.63
2023-06-11T02:35:09.053Z,4.28
2023-06-11T02:36:42.424Z,3.90
2023-06-11T02:38:15.886Z,4.00
2023-06-11T02:39:49.893Z,3.75
2023-06-11T02:41:24.409Z,4.40
2023-06-11T02:42:57.793Z,3.83
2023-06-11T02:44:34.685Z,4.25
2023-06-11T02:46:08.062Z,3.80
2023-06-11T02:47:42.632Z,4.07
2023-06-11T02:49:35.541Z,3.53
2023-06-11T02:51:08.892Z,3.70
2023-06-11T02:52:42.028Z,4.05
2023-06-11T02:54:18.611Z,4.28
2023-06-11T02:55:52.444Z,3.38
2023-06-11T02:57:25.958Z,3.28
2023-06-11T02:59:13.997Z,4.03
2023-06-11T03:00:57.848Z,3.40
2023-06-11T03:02:31.307Z,3.38
2023-06-11T03:04:07.480Z,3.47
2023-06-11T03:05:41.216Z,3.78
2023-06-11T03:07:16.868Z,4.72
2023-06-11T03:08:50.520Z,3.28
2023-06-11T03:10:23.683Z,3.45
2023-06-11T03:11:56.778Z,3.58
2023-06-11T03:13:32.663Z,3.22
2023-06-11T03:15:10.191Z,3.83
2023-06-11T03:16:45.263Z,3.75
2023-06-11T03:18:20.211Z,3.65
2023-06-11T03:19:54.862Z,3.65
2023-06-11T03:21:32.036Z,3.95
2023-06-11T03:23:08.075Z,3.17
2023-06-11T03:24:42.869Z,3.63
2023-06-11T03:26:22.996Z,3.08
2023-06-11T03:27:56.872Z,3.35
2023-06-11T03:29:35.631Z,3.97
2023-06-11T03:31:10.595Z,3.03
2023-06-11T03:32:48.041Z,3.33
2023-06-11T03:34:24.176Z,3.58
2023-06-11T03:36:11.950Z,3.90
2023-06-11T03:37:49.143Z,3.10
2023-06-11T03:39:25.096Z,3.20
2023-06-11T03:41:02.908Z,3.55
2023-06-11T03:42:38.843Z,3.65
2023-06-11T03:44:16.627Z,3.33
2023-06-11T03:45:55.927Z,3.60
2023-06-11T03:47:30.475Z,3.35
2023-06-11T03:49:09.315Z,3.72
2023-06-11T03:50:47.216Z,3.35
2023-06-11T03:52:27.058Z,3.70
2023-06-11T03:54:03.763Z,2.78
2023-06-11T03:55:37.578Z,3.17
2023-06-11T03:57:13.728Z,3.78
2023-06-11T03:58:51.703Z,3.47
2023-06-11T04:00:25.175Z,3.72
2023-06-11T04:02:02.512Z,3.13
2023-06-11T04:03:40.620Z,3.65
2023-06-11T04:05:16.943Z,3.08
2023-06-11T04:06:50.356Z,3.17
2023-06-11T04:08:23.636Z,3.15
2023-06-11T04:09:57.094Z,3.20
2023-06-11T04:11:33.673Z,3.10
2023-06-11T04:13:06.786Z,2.70
2023-06-11T04:14:45.136Z,2.83
2023-06-11T04:16:19.742Z,3.10
2023-06-11T04:17:57.920Z,3.10
2023-06-11T04:19:33.659Z,3.45
2023-06-11T04:21:12.393Z,3.10
2023-06-11T04:22:49.347Z,3.30
2023-06-11T04:24:23.977Z,3.53
2023-06-11T04:25:57.153Z,3.60
2023-06-11T04:27:32.767Z,3.30
2023-06-11T04:29:06.953Z,3.33
2023-06-11T04:30:40.921Z,2.97
2023-06-11T04:32:14.126Z,2.85
2023-06-11T04:33:47.404Z,3.17
2023-06-11T04:35:24.299Z,3.25
2023-06-11T04:37:00.460Z,4.20
2023-06-11T04:38:43.122Z,2.88
2023-06-11T04:40:20.231Z,4.30
2023-06-11T04:41:55.869Z,3.70
2023-06-11T04:43:28.978Z,3.60
2023-06-11T04:45:02.548Z,3.80
2023-06-11T04:46:36.049Z,3.63
2023-06-11T04:48:10.878Z,4.07
2023-06-11T04:49:48.953Z,3.80
2023-06-11T04:51:22.402Z,4.43
2023-06-11T04:53:11.962Z,4.25
2023-06-11T04:54:54.755Z,4.20
2023-06-11T04:56:32.125Z,3.42
2023-06-11T04:58:08.317Z,3.60
2023-06-11T04:59:43.970Z,3.40
2023-06-11T05:01:19.443Z,3.45
2023-06-11T05:02:53.015Z,4.45
2023-06-11T05:04:28.393Z,3.50
2023-06-11T05:06:01.875Z,3.58
2023-06-11T05:07:38.936Z,2.97
2023-06-11T05:09:15.241Z,3.60
2023-06-11T05:10:50.389Z,3.03
2023-06-11T05:12:25.923Z,3.58
2023-06-11T05:13:59.871Z,3.22
2023-06-11T05:15:33.391Z,3.40
2023-06-11T05:17:10.775Z,4.30
2023-06-11T05:18:44.043Z,3.83
2023-06-11T05:20:24.790Z,3.25
2023-06-11T05:22:03.925Z,3.35
2023-06-11T05:23:40.766Z,3.80
2023-06-11T05:25:18.399Z,3.92
2023-06-11T05:27:00.016Z,3.28
2023-06-11T05:28:33.624Z,3.30
2023-06-11T05:30:10.451Z,3.15
2023-06-11T05:31:47.297Z,2.30
2023-06-11T05:33:22.086Z,3.08
2023-06-11T05:34:59.614Z,2.83
2023-06-11T05:36:33.980Z,3.25
2023-06-11T05:38:10.287Z,3.63
2023-06-11T05:39:43.566Z,3.08
2023-06-11T05:41:16.713Z,3.22
2023-06-11T05:42:52.767Z,3.00
2023-06-11T05:44:30.108Z,2.90
2023-06-11T05:46:06.456Z,2.90
2023-06-11T05:47:43.416Z,2.97
2023-06-11T05:49:21.006Z,3.15
2023-06-11T05:50:57.659Z,3.20
2023-06-11T05:52:33.998Z,3.42
2023-06-11T05:54:11.418Z,2.80
2023-06-11T05:55:46.880Z,2.88
2023-06-11T05:57:25.913Z,3.15
2023-06-11T05:59:02.901Z,2.83
2023-06-11T06:00:36.250Z,2.75
2023-06-11T06:02:11.949Z,3.38
2023-06-11T06:03:49.564Z,3.45
2023-06-11T06:05:27.711Z,2.70
2023-06-11T06:07:04.380Z,3.50
2023-06-11T06:08:38.914Z,2.42
2023-06-11T06:10:15.160Z,2.65
2023-06-11T06:11:48.479Z,3.30
2023-06-11T06:13:22.952Z,2.58
2023-06-11T06:14:56.681Z,2.60
2023-06-11T06:16:36.355Z,2.63
2023-06-11T06:18:09.743Z,2.85
2023-06-11T06:19:45.160Z,3.42
2023-06-11T06:21:21.929Z,2.85
2023-06-11T06:22:56.087Z,2.83
2023-06-11T06:24:33.245Z,2.70
2023-06-11T06:26:09.992Z,2.80
2023-06-11T06:27:43.400Z,3.53
2023-06-11T06:29:16.612Z,2.78
2023-06-11T06:31:03.458Z,2.90
2023-06-11T06:32:38.118Z,2.95
2023-06-11T06:34:12.766Z,2.60
2023-06-11T06:35:46.501Z,2.80
2023-06-11T06:37:20.256Z,2.80
2023-06-11T06:38:56.379Z,2.80
2023-06-11T06:40:29.945Z,3.30
2023-06-11T06:42:17.193Z,3.15
2023-06-11T06:43:53.969Z,2.92
2023-06-11T06:45:31.102Z,2.67
2023-06-11T06:47:04.845Z,2.72
2023-06-11T06:48:42.613Z,2.22
2023-06-11T06:50:18.036Z,2.88
2023-06-11T06:51:52.193Z,2.70
2023-06-11T06:53:34.989Z,2.50
2023-06-11T06:55:09.719Z,2.53
2023-06-11T06:56:44.516Z,2.35
2023-06-11T06:58:21.860Z,2.55
2023-06-11T07:00:01.123Z,2.67
2023-06-11T07:01:37.927Z,2.45
2023-06-11T07:03:13.460Z,2.10
2023-06-11T07:04:50.323Z,2.20
2023-06-11T07:06:28.911Z,2.63
2023-06-11T07:08:10.847Z,2.88
2023-06-11T07:09:44.351Z,2.00
2023-06-11T07:11:17.715Z,2.42
2023-06-11T07:12:57.188Z,2.63
2023-06-11T07:14:32.947Z,2.30
2023-06-11T07:16:12.549Z,2.35
2023-06-11T07:17:45.952Z,2.53
2023-06-11T07:19:24.976Z,3.08
2023-06-11T07:20:58.273Z,2.47
2023-06-11T07:22:36.687Z,2.80
2023-06-11T07:24:09.939Z,2.90
2023-06-11T07:25:43.302Z,2.55
2023-06-11T07:27:17.988Z,2.40
2023-06-11T07:28:51.290Z,2.83
2023-06-11T07:30:29.081Z,2.78
2023-06-11T07:32:04.890Z,3.53
2023-06-11T07:33:41.332Z,3.60
2023-06-11T07:35:17.783Z,2.50
2023-06-11T07:36:50.960Z,2.80
2023-06-11T07:38:25.830Z,2.55
2023-06-11T07:39:59.235Z,2.85
2023-06-11T07:41:37.466Z,2.88
2023-06-11T07:43:13.117Z,2.10
2023-06-11T07:44:50.490Z,3.03
2023-06-11T07:46:31.248Z,2.70
2023-06-11T07:48:05.471Z,2.33
2023-06-11T07:49:39.672Z,2.95
2023-06-11T07:51:20.033Z,1.60
2023-06-11T07:52:54.728Z,2.20
2023-06-11T07:54:31.335Z,4.20
2023-06-11T07:56:05.690Z,2.72
2023-06-11T07:57:38.933Z,2.80
2023-06-11T07:59:14.948Z,1.83
2023-06-11T08:00:48.890Z,2.30
2023-06-11T08:02:22.544Z,2.03
2023-06-11T08:03:56.328Z,2.35
2023-06-11T08:05:30.005Z,2.22
2023-06-11T08:07:05.080Z,2.30
2023-06-11T08:08:41.736Z,1.90
2023-06-11T08:10:16.019Z,1.85
2023-06-11T08:11:51.395Z,2.63
2023-06-11T08:13:26.286Z,2.47
2023-06-11T08:15:01.260Z,2.22
2023-06-11T08:16:36.063Z,1.90
2023-06-11T08:18:12.347Z,2.40
2023-06-11T08:19:47.677Z,2.35
2023-06-11T08:21:21.018Z,2.10
2023-06-11T08:22:57.538Z,2.00
2023-06-11T08:24:37.123Z,1.80
2023-06-11T08:26:12.247Z,2.03
2023-06-11T08:27:52.696Z,2.35
2023-06-11T08:29:27.674Z,2.38
2023-06-11T08:31:05.263Z,2.15
2023-06-11T08:32:38.900Z,1.70
2023-06-11T08:34:17.125Z,2.22
2023-06-11T08:35:51.865Z,1.80
2023-06-11T08:37:25.762Z,2.25
2023-06-11T08:39:02.025Z,1.80
2023-06-11T08:40:44.706Z,2.28
2023-06-11T08:42:25.328Z,2.15
2023-06-11T08:44:02.438Z,2.10
2023-06-11T08:45:35.840Z,1.98
2023-06-11T08:47:17.798Z,1.80
2023-06-11T08:49:01.970Z,2.50
2023-06-11T08:50:40.058Z,2.50
2023-06-11T08:52:18.456Z,2.38
2023-06-11T08:53:52.740Z,2.28
2023-06-11T08:55:28.990Z,2.45
2023-06-11T08:57:09.971Z,2.33
2023-06-11T08:58:45.297Z,2.13
2023-06-11T09:00:20.651Z,2.25
2023-06-11T09:01:54.165Z,2.58
2023-06-11T09:03:36.318Z,2.08
2023-06-11T09:05:12.651Z,2.13
2023-06-11T09:06:58.434Z,1.60
2023-06-11T09:08:36.789Z,2.17
2023-06-11T09:10:12.308Z,1.95
2023-06-11T09:11:50.195Z,2.08
2023-06-11T09:13:32.164Z,2.35
2023-06-11T09:15:09.512Z,1.48
2023-06-11T09:16:51.378Z,1.80
2023-06-11T09:18:27.457Z,1.63
2023-06-11T09:20:09.485Z,1.98
2023-06-11T09:21:57.927Z,2.17
2023-06-11T09:23:40.437Z,1.42
2023-06-11T09:25:17.832Z,2.00
2023-06-11T09:26:56.913Z,2.30
2023-06-11T09:28:42.197Z,1.35
2023-06-11T09:30:20.971Z,1.48
2023-06-11T09:32:31.603Z,1.55
2023-06-11T09:34:04.660Z,1.95
2023-06-11T09:35:44.805Z,1.63
2023-06-11T09:37:18.056Z,1.98
2023-06-11T09:38:51.293Z,1.45
2023-06-11T09:40:25.744Z,1.85
2023-06-11T09:42:02.247Z,2.08
2023-06-11T09:43:38.979Z,1.98
2023-06-11T09:45:14.883Z,1.77
2023-06-11T09:46:50.364Z,1.88
2023-06-11T09:48:31.291Z,1.52
2023-06-11T09:50:08.046Z,2.05
2023-06-11T09:51:54.709Z,1.90
2023-06-11T09:53:32.537Z,1.45
2023-06-11T09:55:15.168Z,2.00
2023-06-11T09:56:49.137Z,1.70
2023-06-11T09:58:24.813Z,1.80
2023-06-11T09:59:58.174Z,1.80
2023-06-11T10:01:33.865Z,2.20
2023-06-11T10:03:14.103Z,1.88
2023-06-11T10:04:50.028Z,1.73
2023-06-11T10:06:37.385Z,1.92
2023-06-11T10:08:34.416Z,2.00
2023-06-11T10:10:12.773Z,1.60
2023-06-11T10:11:48.721Z,2.05
2023-06-11T10:13:34.633Z,1.70
2023-06-11T10:15:17.345Z,1.92
2023-06-11T10:16:53.063Z,1.85
2023-06-11T10:18:28.110Z,1.88
2023-06-11T10:20:17.162Z,1.73
2023-06-11T10:21:52.087Z,2.03
2023-06-11T10:23:42.116Z,2.55
2023-06-11T10:25:24.508Z,2.60
2023-06-11T10:27:14.852Z,1.77
2023-06-11T10:28:50.135Z,1.70
2023-06-11T10:30:24.515Z,1.85
2023-06-11T10:31:58.143Z,1.80
2023-06-11T10:33:47.686Z,1.67
2023-06-11T10:35:25.593Z,2.00
2023-06-11T10:37:05.180Z,2.22
2023-06-11T10:38:38.975Z,2.10
2023-06-11T10:40:15.959Z,1.52
2023-06-11T10:42:01.874Z,1.83
2023-06-11T10:43:37.885Z,2.00
2023-06-11T10:45:14.340Z,2.05
2023-06-11T10:46:53.898Z,2.30
2023-06-11T10:48:32.133Z,1.60
2023-06-11T10:50:09.410Z,1.40
2023-06-11T10:51:43.560Z,2.15
2023-06-11T10:53:16.920Z,1.77
2023-06-11T10:54:53.055Z,1.92
2023-06-11T10:56:27.459Z,1.73
2023-06-11T10:58:05.151Z,1.63
2023-06-11T10:59:38.976Z,1.92
2023-06-11T11:01:12.664Z,1.75
2023-06-11T11:02:46.989Z,2.03
2023-06-11T11:04:22.581Z,1.70
2023-06-11T11:05:56.069Z,1.65
2023-06-11T11:07:30.377Z,1.95
2023-06-11T11:09:04.406Z,1.60
2023-06-11T11:10:37.645Z,1.83
2023-06-11T11:12:12.420Z,2.20
2023-06-11T11:13:50.204Z,1.40
2023-06-11T11:15:23.901Z,1.95
2023-06-11T11:16:59.044Z,1.73
2023-06-11T11:18:32.388Z,1.67
2023-06-11T11:20:10.394Z,1.65
2023-06-11T11:21:52.051Z,2.05
2023-06-11T11:23:25.628Z,1.65
2023-06-11T11:25:04.563Z,1.77
2023-06-11T11:26:44.716Z,1.48
2023-06-11T11:28:18.979Z,2.10
2023-06-11T11:29:53.714Z,2.10
2023-06-11T11:31:28.097Z,1.77
2023-06-11T11:33:04.230Z,1.75
2023-06-11T11:34:41.555Z,2.30
2023-06-11T11:36:15.295Z,1.48
2023-06-11T11:37:53.076Z,1.73
2023-06-11T11:39:28.572Z,1.73
2023-06-11T11:41:01.941Z,1.67
2023-06-11T11:42:53.447Z,1.80
2023-06-11T11:44:27.118Z,1.83
2023-06-11T11:46:00.709Z,1.92
2023-06-11T11:47:37.666Z,1.70
2023-06-11T11:49:11.514Z,1.90
2023-06-11T11:50:47.079Z,1.60
2023-06-11T11:52:24.629Z,1.67
2023-06-11T11:54:01.489Z,1.70
2023-06-11T11:55:48.433Z,1.60
2023-06-11T11:57:34.308Z,1.58
2023-06-11T11:59:21.789Z,1.70
2023-06-11T12:00:57.282Z,1.35
2023-06-11T12:02:30.853Z,1.38
2023-06-11T12:04:05.050Z,1.65
2023-06-11T12:05:40.015Z,1.55
2023-06-11T12:07:17.593Z,1.40
2023-06-11T12:08:51.062Z,1.80
2023-06-11T12:10:24.304Z,1.65
2023-06-11T12:12:05.191Z,1.63
2023-06-11T12:13:39.356Z,1.52
2023-06-11T12:15:12.541Z,1.48
2023-06-11T12:16:50.071Z,1.40
2023-06-11T12:18:23.913Z,1.65
2023-06-11T12:19:58.476Z,1.42
2023-06-11T12:21:32.061Z,1.55
2023-06-11T12:23:06.012Z,1.40
2023-06-11T12:24:39.334Z,1.85
2023-06-11T12:26:12.775Z,1.70
2023-06-11T12:27:46.288Z,1.83
2023-06-11T12:29:20.066Z,1.70
2023-06-11T12:30:54.859Z,1.80
2023-06-11T12:32:31.474Z,1.58
2023-06-11T12:34:07.347Z,2.08
2023-06-11T12:35:40.659Z,1.75
2023-06-11T12:37:18.477Z,1.50
2023-06-11T12:38:52.114Z,1.60
2023-06-11T12:40:26.001Z,1.60
2023-06-11T12:42:00.018Z,1.75
2023-06-11T12:43:33.572Z,1.40
2023-06-11T12:45:10.331Z,1.50
2023-06-11T12:46:43.896Z,1.35
2023-06-11T12:48:17.558Z,1.70
2023-06-11T12:49:51.017Z,1.42
2023-06-11T12:51:28.399Z,1.52
2023-06-11T12:53:01.716Z,1.60
2023-06-11T12:54:35.272Z,1.50
2023-06-11T12:56:08.524Z,1.58
2023-06-11T12:57:42.676Z,1.92
2023-06-11T12:59:16.163Z,1.88
2023-06-11T13:00:49.964Z,1.50
2023-06-11T13:02:23.427Z,1.65
2023-06-11T13:03:57.534Z,1.27
2023-06-11T13:05:31.322Z,1.58
2023-06-11T13:07:05.407Z,1.60
2023-06-11T13:08:39.421Z,1.92
2023-06-11T13:10:12.893Z,1.60
2023-06-11T13:11:51.880Z,1.80
2023-06-11T13:13:25.384Z,2.10
2023-06-11T13:14:59.275Z,1.80
2023-06-11T13:16:32.781Z,1.08
2023-06-11T13:18:06.224Z,1.30
2023-06-11T13:19:39.439Z,1.58
2023-06-11T13:21:13.285Z,1.58
2023-06-11T13:22:49.499Z,1.80
2023-06-11T13:24:22.698Z,1.92
2023-06-11T13:25:59.953Z,1.58
2023-06-11T13:27:33.323Z,1.88
2023-06-11T13:29:06.889Z,1.85
2023-06-11T13:30:45.478Z,1.90
2023-06-11T13:32:18.931Z,1.70
2023-06-11T13:33:52.507Z,1.65
2023-06-11T13:35:26.351Z,1.60
2023-06-11T13:37:00.450Z,2.05
2023-06-11T13:38:35.007Z,1.45
2023-06-11T13:40:11.724Z,1.40
2023-06-11T13:41:46.480Z,1.73
2023-06-11T13:43:23.962Z,1.80
2023-06-11T13:44:57.347Z,1.73
2023-06-11T13:46:32.108Z,1.80
2023-06-11T13:48:14.401Z,1.90
2023-06-11T13:49:47.990Z,1.83
2023-06-11T13:51:21.644Z,2.03
2023-06-11T13:52:54.894Z,1.77
2023-06-11T13:54:28.645Z,1.73
2023-06-11T13:56:01.896Z,1.40
2023-06-11T13:57:35.861Z,1.23
2023-06-11T13:59:09.036Z,1.60
2023-06-11T14:00:43.872Z,1.75
2023-06-11T14:02:17.722Z,1.90
2023-06-11T14:03:51.319Z,1.90
2023-06-11T14:05:27.370Z,1.45
2023-06-11T14:07:01.761Z,1.42
2023-06-11T14:08:36.486Z,1.60
2023-06-11T14:10:11.236Z,1.13
2023-06-11T14:11:44.957Z,1.77
2023-06-11T14:13:18.285Z,1.50
2023-06-11T14:14:54.196Z,1.70
2023-06-11T14:16:30.210Z,1.80
2023-06-11T14:18:03.880Z,1.60
2023-06-11T14:19:37.092Z,1.33
2023-06-11T14:21:10.928Z,1.83
2023-06-11T14:22:47.394Z,1.73
2023-06-11T14:24:24.396Z,2.08
2023-06-11T14:25:58.508Z,1.30
2023-06-11T14:27:33.242Z,1.73
2023-06-11T14:29:06.593Z,1.75
2023-06-11T14:30:41.139Z,1.73
2023-06-11T14:32:15.428Z,1.50
2023-06-11T14:33:48.682Z,1.30
2023-06-11T14:35:25.342Z,1.55
2023-06-11T14:36:58.572Z,1.90
2023-06-11T14:38:33.901Z,2.25
2023-06-11T14:40:08.417Z,1.25
2023-06-11T14:41:42.481Z,1.73
2023-06-11T14:43:19.282Z,1.38
2023-06-11T14:44:52.566Z,1.83
2023-06-11T14:46:26.868Z,1.58
2023-06-11T14:48:00.994Z,1.65
2023-06-11T14:49:34.393Z,1.38
2023-06-11T14:51:10.791Z,1.17
2023-06-11T14:52:44.771Z,1.85
2023-06-11T14:54:19.535Z,1.92
2023-06-11T14:55:53.056Z,1.50
2023-06-11T14:57:26.797Z,1.60
2023-06-11T14:59:00.720Z,1.58
2023-06-11T15:00:34.363Z,1.55
2023-06-11T15:02:08.179Z,1.85
2023-06-11T15:03:41.625Z,1.80
2023-06-11T15:05:14.874Z,1.50
2023-06-11T15:06:48.056Z,1.80
2023-06-11T15:08:21.669Z,1.20
2023-06-11T15:09:55.165Z,1.60
2023-06-11T15:11:31.660Z,1.42
2023-06-11T15:13:14.462Z,1.60
2023-06-11T15:14:50.927Z,1.35
2023-06-11T15:16:24.893Z,1.38
2023-06-11T15:17:58.574Z,1.30
2023-06-11T15:19:35.108Z,1.60
2023-06-11T15:21:08.905Z,1.85
2023-06-11T15:22:42.302Z,1.80
2023-06-11T15:24:15.639Z,1.55
2023-06-11T15:25:53.093Z,1.42
2023-06-11T15:27:26.771Z,1.20
2023-06-11T15:29:07.600Z,1.40
2023-06-11T15:30:45.640Z,1.27
2023-06-11T15:32:19.081Z,1.23
2023-06-11T15:33:52.746Z,1.65
2023-06-11T15:35:26.327Z,1.30
2023-06-11T15:36:59.770Z,1.85
2023-06-11T15:38:36.687Z,1.77
2023-06-11T15:40:11.147Z,1.48
2023-06-11T15:41:45.141Z,1.25
2023-06-11T15:43:18.421Z,1.27
2023-06-11T15:44:51.968Z,1.55
2023-06-11T15:46:26.363Z,1.10
2023-06-11T15:48:02.708Z,1.45
2023-06-11T15:49:36.097Z,2.38
2023-06-11T15:51:09.454Z,1.55
2023-06-11T15:52:42.805Z,1.63
2023-06-11T15:54:16.155Z,1.70
2023-06-11T15:55:49.450Z,2.10
2023-06-11T15:57:22.866Z,1.63
2023-06-11T15:58:56.053Z,1.45
2023-06-11T16:00:29.870Z,1.15
2023-06-11T16:02:09.953Z,1.20
2023-06-11T16:03:47.265Z,1.42
2023-06-11T16:05:21.626Z,1.92
2023-06-11T16:06:56.088Z,1.85
2023-06-11T16:08:34.009Z,1.75
2023-06-11T16:10:08.669Z,1.42
2023-06-11T16:11:43.747Z,1.40
2023-06-11T16:13:17.866Z,1.13
2023-06-11T16:14:51.590Z,1.70
2023-06-11T16:16:26.074Z,1.90
2023-06-11T16:18:04.000Z,1.48
2023-06-11T16:19:38.516Z,1.25
2023-06-11T16:21:11.890Z,1.63
2023-06-11T16:22:45.912Z,1.63
2023-06-11T16:24:20.841Z,1.83
2023-06-11T16:25:55.406Z,1.40
2023-06-11T16:27:29.554Z,1.60
2023-06-11T16:29:04.956Z,1.27
2023-06-11T16:30:41.226Z,1.75
2023-06-11T16:32:15.138Z,1.35
2023-06-11T16:33:57.221Z,1.48
2023-06-11T16:35:32.513Z,1.65
2023-06-11T16:37:06.658Z,1.85
2023-06-11T16:38:39.861Z,1.58
2023-06-11T16:40:13.241Z,2.05
2023-06-11T16:41:46.518Z,1.60
2023-06-11T16:43:20.838Z,1.77
2023-06-11T16:44:54.386Z,1.27
2023-06-11T16:46:28.569Z,1.50
2023-06-11T16:48:01.986Z,1.50
2023-06-11T16:49:35.511Z,1.80
2023-06-11T16:51:11.936Z,2.42
2023-06-11T16:52:45.165Z,1.77
2023-06-11T16:54:20.858Z,1.63
2023-06-11T16:55:55.141Z,2.63
2023-06-11T16:57:30.468Z,1.67
2023-06-11T16:59:07.360Z,1.80
2023-06-11T17:00:41.009Z,2.10
2023-06-11T17:02:15.263Z,1.25
2023-06-11T17:03:49.175Z,1.65
2023-06-11T17:05:29.361Z,1.45
2023-06-11T17:07:02.605Z,1.35
2023-06-11T17:08:36.623Z,1.60
2023-06-11T17:10:13.635Z,1.88
2023-06-11T17:11:47.518Z,1.92
2023-06-11T17:13:21.303Z,1.83
2023-06-11T17:14:57.588Z,1.55
2023-06-11T17:16:31.366Z,1.50
2023-06-11T17:18:11.878Z,1.75
2023-06-11T17:19:46.260Z,1.15
2023-06-11T17:21:20.333Z,1.50
2023-06-11T17:22:53.822Z,1.30
2023-06-11T17:24:33.502Z,1.58
2023-06-11T17:26:17.757Z,1.33
2023-06-11T17:27:53.883Z,1.40
2023-06-11T17:29:31.890Z,1.30
2023-06-11T17:31:08.689Z,1.50
2023-06-11T17:32:48.364Z,1.33
2023-06-11T17:34:27.276Z,1.75
2023-06-11T17:36:00.728Z,1.50
2023-06-11T17:37:35.670Z,1.52
2023-06-11T17:39:09.502Z,1.73
2023-06-11T17:40:43.493Z,1.77
2023-06-11T17:42:20.135Z,1.85
2023-06-11T17:43:54.033Z,1.98
2023-06-11T17:45:29.586Z,1.30
2023-06-11T17:47:03.409Z,1.63
2023-06-11T17:48:39.907Z,1.70
2023-06-11T17:50:15.568Z,1.77
2023-06-11T17:51:53.972Z,1.60
2023-06-11T17:53:34.114Z,1.60
2023-06-11T17:55:12.841Z,1.65
2023-06-11T17:56:51.400Z,1.60
2023-06-11T17:58:29.433Z,1.95
2023-06-11T18:00:04.065Z,1.88
2023-06-11T18:01:37.370Z,1.50
2023-06-11T18:03:11.219Z,1.70
2023-06-11T18:04:44.709Z,1.55
2023-06-11T18:06:19.170Z,1.45
2023-06-11T18:07:52.386Z,1.60
2023-06-11T18:09:28.674Z,2.00
2023-06-11T18:11:02.154Z,1.90
2023-06-11T18:12:35.901Z,1.48
2023-06-11T18:14:09.546Z,1.55
2023-06-11T18:15:43.269Z,1.90
2023-06-11T18:17:19.575Z,1.92
2023-06-11T18:18:53.392Z,1.77
2023-06-11T18:20:27.240Z,1.63
2023-06-11T18:22:00.749Z,1.75
2023-06-11T18:23:37.369Z,1.55
2023-06-11T18:25:14.161Z,1.80
2023-06-11T18:26:47.449Z,1.35
2023-06-11T18:28:25.600Z,1.40
2023-06-11T18:30:03.444Z,1.60
2023-06-11T18:31:38.457Z,1.55
2023-06-11T18:33:11.866Z,1.48
2023-06-11T18:34:47.402Z,1.50
2023-06-11T18:36:21.573Z,1.52
2023-06-11T18:37:55.161Z,1.45
2023-06-11T18:39:28.753Z,1.63
2023-06-11T18:41:02.814Z,1.30
2023-06-11T18:42:39.498Z,1.30
2023-06-11T18:44:12.620Z,1.80
2023-06-11T18:45:46.244Z,1.33
2023-06-11T18:47:20.065Z,1.90
2023-06-11T18:48:56.118Z,2.50
2023-06-11T18:50:30.165Z,2.08
2023-06-11T18:52:03.591Z,1.40
2023-06-11T18:53:36.716Z,1.65
2023-06-11T18:55:10.333Z,1.80
2023-06-11T18:56:43.463Z,1.42
2023-06-11T18:58:18.420Z,1.40
2023-06-11T18:59:52.467Z,1.48
2023-06-11T19:01:26.238Z,1.75
2023-06-11T19:03:00.111Z,1.67
2023-06-11T19:04:33.518Z,1.65
2023-06-11T19:06:06.837Z,1.60
2023-06-11T19:07:41.282Z,1.45
2023-06-11T19:09:14.703Z,1.88
2023-06-11T19:10:49.289Z,1.88
2023-06-11T19:12:22.813Z,1.70
2023-06-11T19:13:56.164Z,1.73
2023-06-11T19:15:29.534Z,2.17
2023-06-11T19:17:02.926Z,1.77
2023-06-11T19:18:43.847Z,1.83
2023-06-11T19:20:17.178Z,1.52
2023-06-11T19:21:53.155Z,1.77
2023-06-11T19:23:28.808Z,1.30
2023-06-11T19:25:02.830Z,1.50
2023-06-11T19:26:36.585Z,1.52
2023-06-11T19:28:10.222Z,1.50
2023-06-11T19:29:44.060Z,1.77
2023-06-11T19:31:18.211Z,2.00
2023-06-11T19:32:52.400Z,2.13
2023-06-11T19:34:26.084Z,1.60
2023-06-11T19:36:00.488Z,1.70
2023-06-11T19:37:36.522Z,1.67
2023-06-11T19:39:10.374Z,1.90
2023-06-11T19:40:44.124Z,3.17
2023-06-11T19:42:18.481Z,2.17
2023-06-11T19:43:51.989Z,2.00
2023-06-11T19:45:26.035Z,2.17
2023-06-11T19:47:00.269Z,1.88
2023-06-11T19:48:36.899Z,1.52
2023-06-11T19:50:11.018Z,2.05
2023-06-11T19:51:44.713Z,1.98
2023-06-11T19:53:18.133Z,1.60
2023-06-11T19:54:52.271Z,2.28
2023-06-11T19:56:25.826Z,1.90
2023-06-11T19:57:59.039Z,1.85
2023-06-11T19:59:32.250Z,1.63
2023-06-11T20:01:05.526Z,2.28
2023-06-11T20:02:40.113Z,1.80
2023-06-11T20:04:13.604Z,1.73
2023-06-11T20:05:47.885Z,1.90
2023-06-11T20:07:23.445Z,1.90
2023-06-11T20:08:57.262Z,2.67
2023-06-11T20:10:30.910Z,2.35
2023-06-11T20:12:05.006Z,2.25
2023-06-11T20:13:46.264Z,2.00
2023-06-11T20:15:20.306Z,1.70
2023-06-11T20:16:53.945Z,2.08
2023-06-11T20:18:27.328Z,2.20
2023-06-11T20:20:03.743Z,2.03
2023-06-11T20:21:40.200Z,1.90
2023-06-11T20:23:14.485Z,1.90
2023-06-11T20:24:48.043Z,1.92
2023-06-11T20:26:21.148Z,2.47
2023-06-11T20:27:54.980Z,1.98
2023-06-11T20:29:28.724Z,1.55
2023-06-11T20:31:04.801Z,1.92
2023-06-11T20:32:38.307Z,2.00
2023-06-11T20:34:11.723Z,1.60
2023-06-11T20:35:45.536Z,1.50
2023-06-11T20:37:20.974Z,1.58
2023-06-11T20:38:54.354Z,1.50
2023-06-11T20:40:27.856Z,2.05
2023-06-11T20:42:01.539Z,1.58
2023-06-11T20:43:35.118Z,1.75
2023-06-11T20:45:09.438Z,1.80
2023-06-11T20:46:42.738Z,1.63
2023-06-11T20:48:16.806Z,1.85
2023-06-11T20:49:54.003Z,1.90
2023-06-11T20:51:27.436Z,1.33
2023-06-11T20:53:00.634Z,1.65
2023-06-11T20:54:37.884Z,1.63
2023-06-11T20:56:11.291Z,1.75
2023-06-11T20:57:45.715Z,1.73
2023-06-11T20:59:19.208Z,1.60
2023-06-11T21:00:55.431Z,1.45
2023-06-11T21:02:31.326Z,1.40
2023-06-11T21:04:05.449Z,1.77
2023-06-11T21:05:44.903Z,1.60
2023-06-11T21:07:18.288Z,1.90
2023-06-11T21:08:54.793Z,1.90
2023-06-11T21:10:28.184Z,1.80
2023-06-11T21:12:01.268Z,1.80
2023-06-11T21:13:34.468Z,2.65
2023-06-11T21:15:08.347Z,1.90
2023-06-11T21:16:42.168Z,2.50
2023-06-11T21:18:15.615Z,2.38
2023-06-11T21:19:49.294Z,2.97
2023-06-11T21:21:24.955Z,2.05